sensor_id;sensor_type;location;lat;lon;timestamp;temperature;humidity
423;DHT22;198;48.752;9.180;2023-04-03T00:01:32;5.60;99.90
423;DHT22;198;48.752;9.180;2023-04-03T00:03:58;5.60;99.90
423;DHT22;198;48.752;9.180;2023-04-03T00:06:24;5.50;99.90
423;DHT22;198;48.752;9.180;2023-04-03T00:08:50;5.50;99.90
423;DHT22;198;48.752;9.180;2023-04-03T00:11:17;5.40;99.90
423;DHT22;198;48.752;9.180;2023-04-03T00:13:43;5.40;99.90
423;DHT22;198;48.752;9.180;2023-04-03T00:16:09;5.40;99.90
423;DHT22;198;48.752;9.180;2023-04-03T00:18:36;5.40;99.90
423;DHT22;198;48.752;9.180;2023-04-03T00:21:03;5.40;99.90
423;DHT22;198;48.752;9.180;2023-04-03T00:23:28;5.30;99.90
423;DHT22;198;48.752;9.180;2023-04-03T00:25:54;5.30;99.90
423;DHT22;198;48.752;9.180;2023-04-03T00:28:20;5.30;99.90
423;DHT22;198;48.752;9.180;2023-04-03T00:30:48;5.30;99.90
423;DHT22;198;48.752;9.180;2023-04-03T00:33:14;5.40;99.90
423;DHT22;198;48.752;9.180;2023-04-03T00:35:39;5.30;99.90
423;DHT22;198;48.752;9.180;2023-04-03T00:38:05;5.30;99.90
423;DHT22;198;48.752;9.180;2023-04-03T00:40:36;5.30;99.90
423;DHT22;198;48.752;9.180;2023-04-03T00:43:10;5.30;99.90
423;DHT22;198;48.752;9.180;2023-04-03T00:45:43;5.30;99.90
423;DHT22;198;48.752;9.180;2023-04-03T00:48:13;5.30;99.90
423;DHT22;198;48.752;9.180;2023-04-03T00:50:41;5.20;99.90
423;DHT22;198;48.752;9.180;2023-04-03T00:53:12;5.10;99.90
423;DHT22;198;48.752;9.180;2023-04-03T00:55:38;5.10;99.90
423;DHT22;198;48.752;9.180;2023-04-03T00:58:05;5.10;99.90
423;DHT22;198;48.752;9.180;2023-04-03T01:00:32;5.10;99.90
423;DHT22;198;48.752;9.180;2023-04-03T01:02:59;5.10;99.90
423;DHT22;198;48.752;9.180;2023-04-03T01:05:25;5.10;99.90
423;DHT22;198;48.752;9.180;2023-04-03T01:07:51;5.10;99.90
423;DHT22;198;48.752;9.180;2023-04-03T01:10:18;5.00;99.90
423;DHT22;198;48.752;9.180;2023-04-03T01:12:47;5.00;99.90
423;DHT22;198;48.752;9.180;2023-04-03T01:15:17;5.10;99.90
423;DHT22;198;48.752;9.180;2023-04-03T01:17:46;5.10;99.90
423;DHT22;198;48.752;9.180;2023-04-03T01:25:38;5.20;99.90
423;DHT22;198;48.752;9.180;2023-04-03T01:28:05;5.10;99.90
423;DHT22;198;48.752;9.180;2023-04-03T01:30:34;5.20;99.90
423;DHT22;198;48.752;9.180;2023-04-03T01:33:01;5.10;99.90
423;DHT22;198;48.752;9.180;2023-04-03T01:35:27;5.00;99.90
423;DHT22;198;48.752;9.180;2023-04-03T01:37:53;5.00;99.90
423;DHT22;198;48.752;9.180;2023-04-03T01:40:18;5.00;99.90
423;DHT22;198;48.752;9.180;2023-04-03T01:42:44;5.00;99.90
423;DHT22;198;48.752;9.180;2023-04-03T01:45:09;4.90;99.90
423;DHT22;198;48.752;9.180;2023-04-03T01:47:35;4.80;99.90
423;DHT22;198;48.752;9.180;2023-04-03T01:50:00;4.80;99.90
423;DHT22;198;48.752;9.180;2023-04-03T01:52:26;4.70;99.90
423;DHT22;198;48.752;9.180;2023-04-03T01:54:52;4.70;99.90
423;DHT22;198;48.752;9.180;2023-04-03T01:57:17;4.70;99.90
423;DHT22;198;48.752;9.180;2023-04-03T01:59:43;4.80;99.90
423;DHT22;198;48.752;9.180;2023-04-03T02:02:08;4.80;99.90
423;DHT22;198;48.752;9.180;2023-04-03T02:04:34;4.90;99.90
423;DHT22;198;48.752;9.180;2023-04-03T02:07:00;4.80;99.90
423;DHT22;198;48.752;9.180;2023-04-03T02:09:25;4.80;99.90
423;DHT22;198;48.752;9.180;2023-04-03T02:11:52;4.90;99.90
423;DHT22;198;48.752;9.180;2023-04-03T02:14:18;4.90;99.90
423;DHT22;198;48.752;9.180;2023-04-03T02:16:43;4.90;99.90
423;DHT22;198;48.752;9.180;2023-04-03T02:19:09;5.00;99.90
423;DHT22;198;48.752;9.180;2023-04-03T02:21:34;5.00;99.90
423;DHT22;198;48.752;9.180;2023-04-03T02:24:00;5.00;99.90
423;DHT22;198;48.752;9.180;2023-04-03T02:26:25;5.00;99.90
423;DHT22;198;48.752;9.180;2023-04-03T02:28:51;5.00;99.90
423;DHT22;198;48.752;9.180;2023-04-03T02:31:17;5.00;99.90
423;DHT22;198;48.752;9.180;2023-04-03T02:33:43;5.00;99.90
423;DHT22;198;48.752;9.180;2023-04-03T02:36:08;5.00;99.90
423;DHT22;198;48.752;9.180;2023-04-03T02:38:34;5.00;99.90
423;DHT22;198;48.752;9.180;2023-04-03T02:41:06;5.00;99.90
423;DHT22;198;48.752;9.180;2023-04-03T02:43:32;5.00;99.90
423;DHT22;198;48.752;9.180;2023-04-03T02:45:58;5.00;99.90
423;DHT22;198;48.752;9.180;2023-04-03T02:48:23;5.00;99.90
423;DHT22;198;48.752;9.180;2023-04-03T02:50:49;5.00;99.90
423;DHT22;198;48.752;9.180;2023-04-03T02:53:15;5.00;99.90
423;DHT22;198;48.752;9.180;2023-04-03T02:55:41;5.00;99.90
423;DHT22;198;48.752;9.180;2023-04-03T02:58:07;5.00;99.90
423;DHT22;198;48.752;9.180;2023-04-03T03:00:32;4.90;99.90
423;DHT22;198;48.752;9.180;2023-04-03T03:02:58;5.00;99.90
423;DHT22;198;48.752;9.180;2023-04-03T03:05:24;5.00;99.90
423;DHT22;198;48.752;9.180;2023-04-03T03:07:49;5.00;99.90
423;DHT22;198;48.752;9.180;2023-04-03T03:10:15;5.00;99.90
423;DHT22;198;48.752;9.180;2023-04-03T03:12:41;5.10;99.90
423;DHT22;198;48.752;9.180;2023-04-03T03:15:07;5.10;99.90
423;DHT22;198;48.752;9.180;2023-04-03T03:17:33;5.10;99.90
423;DHT22;198;48.752;9.180;2023-04-03T03:19:59;5.20;99.90
423;DHT22;198;48.752;9.180;2023-04-03T03:22:25;5.30;99.90
423;DHT22;198;48.752;9.180;2023-04-03T03:24:51;5.20;99.90
423;DHT22;198;48.752;9.180;2023-04-03T03:27:16;5.20;99.90
423;DHT22;198;48.752;9.180;2023-04-03T03:29:42;5.20;99.90
423;DHT22;198;48.752;9.180;2023-04-03T03:32:08;5.20;99.90
423;DHT22;198;48.752;9.180;2023-04-03T03:34:33;5.20;99.90
423;DHT22;198;48.752;9.180;2023-04-03T03:36:59;5.20;99.90
423;DHT22;198;48.752;9.180;2023-04-03T03:39:24;5.20;99.90
423;DHT22;198;48.752;9.180;2023-04-03T03:41:50;5.20;99.90
423;DHT22;198;48.752;9.180;2023-04-03T03:44:16;5.30;99.90
423;DHT22;198;48.752;9.180;2023-04-03T03:46:41;5.30;99.90
423;DHT22;198;48.752;9.180;2023-04-03T03:49:07;5.30;99.90
423;DHT22;198;48.752;9.180;2023-04-03T03:51:32;5.30;99.90
423;DHT22;198;48.752;9.180;2023-04-03T03:53:58;5.30;99.90
423;DHT22;198;48.752;9.180;2023-04-03T03:56:23;5.20;99.90
423;DHT22;198;48.752;9.180;2023-04-03T03:58:49;5.20;99.90
423;DHT22;198;48.752;9.180;2023-04-03T04:01:15;5.20;99.90
423;DHT22;198;48.752;9.180;2023-04-03T04:03:42;5.20;99.90
423;DHT22;198;48.752;9.180;2023-04-03T04:06:07;5.20;99.90
423;DHT22;198;48.752;9.180;2023-04-03T04:08:33;5.10;99.90
423;DHT22;198;48.752;9.180;2023-04-03T04:10:58;5.10;99.90
423;DHT22;198;48.752;9.180;2023-04-03T04:13:24;5.00;99.90
423;DHT22;198;48.752;9.180;2023-04-03T04:15:49;5.00;99.90
423;DHT22;198;48.752;9.180;2023-04-03T04:18:15;5.00;99.90
423;DHT22;198;48.752;9.180;2023-04-03T04:20:40;5.00;99.90
423;DHT22;198;48.752;9.180;2023-04-03T04:23:06;5.00;99.90
423;DHT22;198;48.752;9.180;2023-04-03T04:25:31;5.00;99.90
423;DHT22;198;48.752;9.180;2023-04-03T04:27:58;5.00;99.90
423;DHT22;198;48.752;9.180;2023-04-03T04:30:23;5.00;99.90
423;DHT22;198;48.752;9.180;2023-04-03T04:32:49;5.10;99.90
423;DHT22;198;48.752;9.180;2023-04-03T04:35:14;5.00;99.90
423;DHT22;198;48.752;9.180;2023-04-03T04:37:40;5.00;99.90
423;DHT22;198;48.752;9.180;2023-04-03T04:40:06;5.00;99.90
423;DHT22;198;48.752;9.180;2023-04-03T04:42:32;5.00;99.90
423;DHT22;198;48.752;9.180;2023-04-03T04:44:58;5.10;99.90
423;DHT22;198;48.752;9.180;2023-04-03T04:47:23;5.10;99.90
423;DHT22;198;48.752;9.180;2023-04-03T04:49:49;5.10;99.90
423;DHT22;198;48.752;9.180;2023-04-03T04:52:14;5.20;99.90
423;DHT22;198;48.752;9.180;2023-04-03T04:54:40;5.20;99.90
423;DHT22;198;48.752;9.180;2023-04-03T04:57:05;5.10;99.90
423;DHT22;198;48.752;9.180;2023-04-03T04:59:31;5.10;99.90
423;DHT22;198;48.752;9.180;2023-04-03T05:01:56;5.10;99.90
423;DHT22;198;48.752;9.180;2023-04-03T05:04:22;5.00;99.90
423;DHT22;198;48.752;9.180;2023-04-03T05:06:48;5.00;99.90
423;DHT22;198;48.752;9.180;2023-04-03T05:09:13;5.00;99.90
423;DHT22;198;48.752;9.180;2023-04-03T05:11:39;5.00;99.90
423;DHT22;198;48.752;9.180;2023-04-03T05:14:04;5.00;99.90
423;DHT22;198;48.752;9.180;2023-04-03T05:16:33;5.00;99.90
423;DHT22;198;48.752;9.180;2023-04-03T05:18:59;5.00;99.90
423;DHT22;198;48.752;9.180;2023-04-03T05:21:24;5.10;99.90
423;DHT22;198;48.752;9.180;2023-04-03T05:23:51;5.10;99.90
423;DHT22;198;48.752;9.180;2023-04-03T05:26:17;5.00;99.90
423;DHT22;198;48.752;9.180;2023-04-03T05:28:43;5.10;99.90
423;DHT22;198;48.752;9.180;2023-04-03T05:31:08;5.10;99.90
423;DHT22;198;48.752;9.180;2023-04-03T05:33:34;5.10;99.90
423;DHT22;198;48.752;9.180;2023-04-03T05:36:05;5.20;99.90
423;DHT22;198;48.752;9.180;2023-04-03T05:38:31;5.20;99.70
423;DHT22;198;48.752;9.180;2023-04-03T05:40:57;5.30;99.10
423;DHT22;198;48.752;9.180;2023-04-03T05:43:23;5.40;98.50
423;DHT22;198;48.752;9.180;2023-04-03T05:45:48;5.40;98.70
423;DHT22;198;48.752;9.180;2023-04-03T05:48:14;5.50;98.90
423;DHT22;198;48.752;9.180;2023-04-03T05:50:39;5.50;98.80
423;DHT22;198;48.752;9.180;2023-04-03T05:53:08;5.60;98.70
423;DHT22;198;48.752;9.180;2023-04-03T05:55:38;5.60;98.60
423;DHT22;198;48.752;9.180;2023-04-03T05:58:04;5.50;98.40
423;DHT22;198;48.752;9.180;2023-04-03T06:00:30;5.40;99.00
423;DHT22;198;48.752;9.180;2023-04-03T06:02:55;5.20;99.70
423;DHT22;198;48.752;9.180;2023-04-03T06:05:21;5.20;99.90
423;DHT22;198;48.752;9.180;2023-04-03T06:07:46;5.20;99.90
423;DHT22;198;48.752;9.180;2023-04-03T06:10:12;5.30;99.90
423;DHT22;198;48.752;9.180;2023-04-03T06:12:38;5.30;99.90
423;DHT22;198;48.752;9.180;2023-04-03T06:15:04;5.30;99.90
423;DHT22;198;48.752;9.180;2023-04-03T06:17:30;5.30;99.90
423;DHT22;198;48.752;9.180;2023-04-03T06:19:56;5.40;99.90
423;DHT22;198;48.752;9.180;2023-04-03T06:22:23;5.50;99.90
423;DHT22;198;48.752;9.180;2023-04-03T06:24:50;5.60;99.90
423;DHT22;198;48.752;9.180;2023-04-03T06:27:16;5.60;99.90
423;DHT22;198;48.752;9.180;2023-04-03T06:29:42;5.70;99.90
423;DHT22;198;48.752;9.180;2023-04-03T06:32:08;5.90;99.90
423;DHT22;198;48.752;9.180;2023-04-03T06:34:33;6.00;99.90
423;DHT22;198;48.752;9.180;2023-04-03T06:36:59;6.10;99.70
423;DHT22;198;48.752;9.180;2023-04-03T06:39:25;6.20;99.90
423;DHT22;198;48.752;9.180;2023-04-03T06:41:51;6.30;99.10
423;DHT22;198;48.752;9.180;2023-04-03T06:44:17;6.30;98.60
423;DHT22;198;48.752;9.180;2023-04-03T06:46:43;6.50;98.30
423;DHT22;198;48.752;9.180;2023-04-03T06:49:10;6.60;96.80
423;DHT22;198;48.752;9.180;2023-04-03T06:51:36;6.70;96.00
423;DHT22;198;48.752;9.180;2023-04-03T06:54:03;6.80;95.50
423;DHT22;198;48.752;9.180;2023-04-03T06:56:29;6.80;95.80
423;DHT22;198;48.752;9.180;2023-04-03T06:58:55;6.80;96.00
423;DHT22;198;48.752;9.180;2023-04-03T07:01:24;6.80;96.10
423;DHT22;198;48.752;9.180;2023-04-03T07:03:51;6.70;95.10
423;DHT22;198;48.752;9.180;2023-04-03T07:06:17;6.70;95.80
423;DHT22;198;48.752;9.180;2023-04-03T07:08:43;6.70;96.00
423;DHT22;198;48.752;9.180;2023-04-03T07:11:10;6.80;95.50
423;DHT22;198;48.752;9.180;2023-04-03T07:13:36;6.90;95.60
423;DHT22;198;48.752;9.180;2023-04-03T07:16:02;7.00;95.60
423;DHT22;198;48.752;9.180;2023-04-03T07:18:30;7.10;95.30
423;DHT22;198;48.752;9.180;2023-04-03T07:20:55;7.20;95.30
423;DHT22;198;48.752;9.180;2023-04-03T07:23:21;7.30;95.40
423;DHT22;198;48.752;9.180;2023-04-03T07:25:48;7.50;95.20
423;DHT22;198;48.752;9.180;2023-04-03T07:28:14;7.80;93.60
423;DHT22;198;48.752;9.180;2023-04-03T07:30:44;7.80;93.70
423;DHT22;198;48.752;9.180;2023-04-03T07:33:10;7.90;93.30
423;DHT22;198;48.752;9.180;2023-04-03T07:35:37;8.10;92.90
423;DHT22;198;48.752;9.180;2023-04-03T07:38:02;8.20;91.80
423;DHT22;198;48.752;9.180;2023-04-03T07:40:28;8.30;91.60
423;DHT22;198;48.752;9.180;2023-04-03T07:42:53;8.40;90.90
423;DHT22;198;48.752;9.180;2023-04-03T07:45:20;8.40;91.20
423;DHT22;198;48.752;9.180;2023-04-03T07:47:45;8.50;90.90
423;DHT22;198;48.752;9.180;2023-04-03T07:50:11;8.70;90.90
423;DHT22;198;48.752;9.180;2023-04-03T07:52:36;8.80;90.20
423;DHT22;198;48.752;9.180;2023-04-03T07:55:02;8.80;90.40
423;DHT22;198;48.752;9.180;2023-04-03T07:57:28;8.80;89.00
423;DHT22;198;48.752;9.180;2023-04-03T07:59:53;8.80;88.30
423;DHT22;198;48.752;9.180;2023-04-03T08:02:19;8.60;88.90
423;DHT22;198;48.752;9.180;2023-04-03T08:04:45;8.70;89.50
423;DHT22;198;48.752;9.180;2023-04-03T08:07:10;8.70;88.20
423;DHT22;198;48.752;9.180;2023-04-03T08:09:36;8.80;87.60
423;DHT22;198;48.752;9.180;2023-04-03T08:12:01;8.80;87.80
423;DHT22;198;48.752;9.180;2023-04-03T08:14:27;9.00;85.30
423;DHT22;198;48.752;9.180;2023-04-03T08:16:55;9.00;86.30
423;DHT22;198;48.752;9.180;2023-04-03T08:19:21;9.20;86.00
423;DHT22;198;48.752;9.180;2023-04-03T08:21:47;9.30;87.10
423;DHT22;198;48.752;9.180;2023-04-03T08:24:12;9.60;84.70
423;DHT22;198;48.752;9.180;2023-04-03T08:26:38;9.90;83.60
423;DHT22;198;48.752;9.180;2023-04-03T08:29:03;10.10;82.10
423;DHT22;198;48.752;9.180;2023-04-03T08:31:29;10.10;77.70
423;DHT22;198;48.752;9.180;2023-04-03T08:33:57;10.20;79.50
423;DHT22;198;48.752;9.180;2023-04-03T08:36:27;10.20;80.00
423;DHT22;198;48.752;9.180;2023-04-03T08:38:54;10.10;78.30
423;DHT22;198;48.752;9.180;2023-04-03T08:41:34;10.10;76.80
423;DHT22;198;48.752;9.180;2023-04-03T08:46:55;10.30;79.30
423;DHT22;198;48.752;9.180;2023-04-03T08:49:32;10.40;78.20
423;DHT22;198;48.752;9.180;2023-04-03T08:52:02;10.50;78.30
423;DHT22;198;48.752;9.180;2023-04-03T08:54:52;10.50;78.50
423;DHT22;198;48.752;9.180;2023-04-03T08:57:26;10.70;77.40
423;DHT22;198;48.752;9.180;2023-04-03T08:59:53;10.90;75.00
423;DHT22;198;48.752;9.180;2023-04-03T09:02:34;11.20;76.10
423;DHT22;198;48.752;9.180;2023-04-03T09:05:15;11.70;73.80
423;DHT22;198;48.752;9.180;2023-04-03T09:08:01;11.90;71.90
423;DHT22;198;48.752;9.180;2023-04-03T09:10:33;11.80;69.80
423;DHT22;198;48.752;9.180;2023-04-03T09:15:47;12.50;68.50
423;DHT22;198;48.752;9.180;2023-04-03T09:18:35;12.20;67.20
423;DHT22;198;48.752;9.180;2023-04-03T09:21:14;12.20;66.10
423;DHT22;198;48.752;9.180;2023-04-03T09:23:59;12.30;64.00
423;DHT22;198;48.752;9.180;2023-04-03T09:26:44;12.40;65.30
423;DHT22;198;48.752;9.180;2023-04-03T09:29:17;12.50;64.10
423;DHT22;198;48.752;9.180;2023-04-03T09:31:44;12.40;63.60
423;DHT22;198;48.752;9.180;2023-04-03T09:36:55;11.90;60.20
423;DHT22;198;48.752;9.180;2023-04-03T09:39:26;11.70;60.40
423;DHT22;198;48.752;9.180;2023-04-03T09:42:05;11.90;61.40
423;DHT22;198;48.752;9.180;2023-04-03T09:44:37;11.70;59.60
423;DHT22;198;48.752;9.180;2023-04-03T09:47:30;11.90;60.80
423;DHT22;198;48.752;9.180;2023-04-03T09:52:44;12.30;59.20
423;DHT22;198;48.752;9.180;2023-04-03T09:55:19;12.00;58.90
423;DHT22;198;48.752;9.180;2023-04-03T09:57:47;11.70;59.90
423;DHT22;198;48.752;9.180;2023-04-03T10:02:50;10.80;62.50
423;DHT22;198;48.752;9.180;2023-04-03T10:05:37;10.70;64.60
423;DHT22;198;48.752;9.180;2023-04-03T10:10:42;10.40;62.80
423;DHT22;198;48.752;9.180;2023-04-03T10:13:13;10.20;62.80
423;DHT22;198;48.752;9.180;2023-04-03T10:18:31;9.90;65.50
423;DHT22;198;48.752;9.180;2023-04-03T10:21:29;9.60;66.10
423;DHT22;198;48.752;9.180;2023-04-03T10:24:08;9.30;66.70
423;DHT22;198;48.752;9.180;2023-04-03T10:34:27;9.10;68.60
423;DHT22;198;48.752;9.180;2023-04-03T10:37:14;9.40;69.80
423;DHT22;198;48.752;9.180;2023-04-03T10:39:59;9.50;69.20
423;DHT22;198;48.752;9.180;2023-04-03T10:42:50;9.60;67.20
423;DHT22;198;48.752;9.180;2023-04-03T10:53:39;9.50;67.20
423;DHT22;198;48.752;9.180;2023-04-03T10:56:23;9.40;68.40
423;DHT22;198;48.752;9.180;2023-04-03T11:01:46;9.50;68.90
423;DHT22;198;48.752;9.180;2023-04-03T11:04:14;9.60;68.40
423;DHT22;198;48.752;9.180;2023-04-03T11:06:46;9.60;67.40
423;DHT22;198;48.752;9.180;2023-04-03T11:09:32;9.60;67.40
423;DHT22;198;48.752;9.180;2023-04-03T11:12:05;9.50;67.90
423;DHT22;198;48.752;9.180;2023-04-03T11:14:36;9.40;68.40
423;DHT22;198;48.752;9.180;2023-04-03T11:19:52;9.40;68.80
423;DHT22;198;48.752;9.180;2023-04-03T11:22:42;9.60;69.30
423;DHT22;198;48.752;9.180;2023-04-03T11:27:46;9.70;64.90
423;DHT22;198;48.752;9.180;2023-04-03T11:30:22;9.80;64.00
423;DHT22;198;48.752;9.180;2023-04-03T11:35:24;9.50;62.20
423;DHT22;198;48.752;9.180;2023-04-03T11:37:52;9.40;62.20
423;DHT22;198;48.752;9.180;2023-04-03T11:40:28;9.30;61.70
423;DHT22;198;48.752;9.180;2023-04-03T11:46:03;9.00;61.80
423;DHT22;198;48.752;9.180;2023-04-03T11:50:57;9.30;61.80
423;DHT22;198;48.752;9.180;2023-04-03T11:53:43;9.40;61.20
423;DHT22;198;48.752;9.180;2023-04-03T12:01:45;9.90;59.80
423;DHT22;198;48.752;9.180;2023-04-03T12:04:12;10.00;59.20
423;DHT22;198;48.752;9.180;2023-04-03T12:12:28;10.00;58.70
423;DHT22;198;48.752;9.180;2023-04-03T12:14:54;10.00;58.50
423;DHT22;198;48.752;9.180;2023-04-03T12:17:23;10.00;59.10
423;DHT22;198;48.752;9.180;2023-04-03T12:19:49;10.00;59.30
423;DHT22;198;48.752;9.180;2023-04-03T12:22:17;10.00;59.50
423;DHT22;198;48.752;9.180;2023-04-03T12:24:48;9.70;59.00
423;DHT22;198;48.752;9.180;2023-04-03T12:27:26;9.70;60.10
423;DHT22;198;48.752;9.180;2023-04-03T12:32:47;9.60;60.60
423;DHT22;198;48.752;9.180;2023-04-03T12:35:30;9.80;60.60
423;DHT22;198;48.752;9.180;2023-04-03T12:40:48;10.10;59.40
423;DHT22;198;48.752;9.180;2023-04-03T12:43:41;10.20;58.40
423;DHT22;198;48.752;9.180;2023-04-03T12:48:49;10.00;57.80
423;DHT22;198;48.752;9.180;2023-04-03T12:51:25;9.80;57.80
423;DHT22;198;48.752;9.180;2023-04-03T12:54:00;9.70;57.50
423;DHT22;198;48.752;9.180;2023-04-03T12:56:29;9.70;57.40
423;DHT22;198;48.752;9.180;2023-04-03T12:59:19;9.80;57.60
423;DHT22;198;48.752;9.180;2023-04-03T13:01:57;10.00;55.90
423;DHT22;198;48.752;9.180;2023-04-03T13:04:23;10.40;56.00
423;DHT22;198;48.752;9.180;2023-04-03T13:06:49;10.70;55.50
423;DHT22;198;48.752;9.180;2023-04-03T13:09:30;10.90;56.00
423;DHT22;198;48.752;9.180;2023-04-03T13:12:09;11.40;55.10
423;DHT22;198;48.752;9.180;2023-04-03T13:14:36;11.80;54.10
423;DHT22;198;48.752;9.180;2023-04-03T13:17:14;12.30;54.60
423;DHT22;198;48.752;9.180;2023-04-03T13:19:41;13.40;53.30
423;DHT22;198;48.752;9.180;2023-04-03T13:22:31;14.50;52.30
423;DHT22;198;48.752;9.180;2023-04-03T13:24:59;15.30;50.20
423;DHT22;198;48.752;9.180;2023-04-03T13:27:29;16.10;48.60
423;DHT22;198;48.752;9.180;2023-04-03T13:29:58;17.40;45.40
423;DHT22;198;48.752;9.180;2023-04-03T13:32:26;18.30;44.30
423;DHT22;198;48.752;9.180;2023-04-03T13:34:52;20.60;43.60
423;DHT22;198;48.752;9.180;2023-04-03T13:37:22;22.20;38.50
423;DHT22;198;48.752;9.180;2023-04-03T13:42:35;21.10;34.60
423;DHT22;198;48.752;9.180;2023-04-03T13:45:28;20.10;34.40
423;DHT22;198;48.752;9.180;2023-04-03T13:48:17;18.80;34.70
423;DHT22;198;48.752;9.180;2023-04-03T13:51:04;18.10;35.30
423;DHT22;198;48.752;9.180;2023-04-03T13:53:33;17.90;35.80
423;DHT22;198;48.752;9.180;2023-04-03T13:58:31;17.50;36.30
423;DHT22;198;48.752;9.180;2023-04-03T14:01:17;17.20;36.50
423;DHT22;198;48.752;9.180;2023-04-03T14:03:54;16.50;36.10
423;DHT22;198;48.752;9.180;2023-04-03T14:06:20;16.00;38.00
423;DHT22;198;48.752;9.180;2023-04-03T14:08:46;15.70;38.60
423;DHT22;198;48.752;9.180;2023-04-03T14:11:19;15.40;38.60
423;DHT22;198;48.752;9.180;2023-04-03T14:13:47;15.00;38.80
423;DHT22;198;48.752;9.180;2023-04-03T14:16:15;14.50;39.40
423;DHT22;198;48.752;9.180;2023-04-03T14:18:42;14.10;39.50
423;DHT22;198;48.752;9.180;2023-04-03T14:21:12;13.50;40.60
423;DHT22;198;48.752;9.180;2023-04-03T14:23:39;13.00;40.90
423;DHT22;198;48.752;9.180;2023-04-03T14:26:14;12.60;42.00
423;DHT22;198;48.752;9.180;2023-04-03T14:28:41;12.40;41.90
423;DHT22;198;48.752;9.180;2023-04-03T14:31:07;12.20;42.50
423;DHT22;198;48.752;9.180;2023-04-03T14:33:32;12.00;42.40
423;DHT22;198;48.752;9.180;2023-04-03T14:36:00;11.80;43.10
423;DHT22;198;48.752;9.180;2023-04-03T14:38:30;11.60;43.40
423;DHT22;198;48.752;9.180;2023-04-03T14:40:57;11.30;44.80
423;DHT22;198;48.752;9.180;2023-04-03T14:43:22;11.20;45.50
423;DHT22;198;48.752;9.180;2023-04-03T14:45:49;11.50;45.40
423;DHT22;198;48.752;9.180;2023-04-03T14:48:19;11.80;45.20
423;DHT22;198;48.752;9.180;2023-04-03T14:50:45;12.30;44.50
423;DHT22;198;48.752;9.180;2023-04-03T14:53:12;12.80;44.20
423;DHT22;198;48.752;9.180;2023-04-03T14:55:42;12.90;41.30
423;DHT22;198;48.752;9.180;2023-04-03T14:58:15;12.70;41.90
423;DHT22;198;48.752;9.180;2023-04-03T15:00:41;12.40;41.90
423;DHT22;198;48.752;9.180;2023-04-03T15:03:16;12.00;42.10
423;DHT22;198;48.752;9.180;2023-04-03T15:05:44;11.80;42.30
423;DHT22;198;48.752;9.180;2023-04-03T15:08:22;11.70;43.30
423;DHT22;198;48.752;9.180;2023-04-03T15:10:49;11.50;42.90
423;DHT22;198;48.752;9.180;2023-04-03T15:13:18;11.30;43.90
423;DHT22;198;48.752;9.180;2023-04-03T15:15:44;11.30;44.00
423;DHT22;198;48.752;9.180;2023-04-03T15:18:19;11.40;43.80
423;DHT22;198;48.752;9.180;2023-04-03T15:20:45;11.40;43.00
423;DHT22;198;48.752;9.180;2023-04-03T15:23:12;11.40;43.40
423;DHT22;198;48.752;9.180;2023-04-03T15:25:38;11.40;43.20
423;DHT22;198;48.752;9.180;2023-04-03T15:28:05;11.60;43.20
423;DHT22;198;48.752;9.180;2023-04-03T15:30:31;11.50;43.10
423;DHT22;198;48.752;9.180;2023-04-03T15:32:57;11.60;42.70
423;DHT22;198;48.752;9.180;2023-04-03T15:35:22;11.60;42.00
423;DHT22;198;48.752;9.180;2023-04-03T15:37:48;11.50;41.90
423;DHT22;198;48.752;9.180;2023-04-03T15:40:14;11.80;41.20
423;DHT22;198;48.752;9.180;2023-04-03T15:42:40;11.70;41.10
423;DHT22;198;48.752;9.180;2023-04-03T15:45:06;11.30;41.70
423;DHT22;198;48.752;9.180;2023-04-03T15:47:32;11.00;42.20
423;DHT22;198;48.752;9.180;2023-04-03T15:49:58;10.50;43.00
423;DHT22;198;48.752;9.180;2023-04-03T15:52:23;10.30;43.10
423;DHT22;198;48.752;9.180;2023-04-03T15:54:49;10.60;44.70
423;DHT22;198;48.752;9.180;2023-04-03T15:57:14;11.80;44.60
423;DHT22;198;48.752;9.180;2023-04-03T15:59:40;13.40;43.50
423;DHT22;198;48.752;9.180;2023-04-03T16:02:07;14.60;41.10
423;DHT22;198;48.752;9.180;2023-04-03T16:04:34;15.30;39.30
423;DHT22;198;48.752;9.180;2023-04-03T16:07:03;15.90;36.70
423;DHT22;198;48.752;9.180;2023-04-03T16:09:30;16.40;36.30
423;DHT22;198;48.752;9.180;2023-04-03T16:11:56;17.30;36.30
423;DHT22;198;48.752;9.180;2023-04-03T16:14:22;18.20;35.60
423;DHT22;198;48.752;9.180;2023-04-03T16:16:47;18.70;35.20
423;DHT22;198;48.752;9.180;2023-04-03T16:19:13;19.60;31.70
423;DHT22;198;48.752;9.180;2023-04-03T16:21:39;19.60;32.20
423;DHT22;198;48.752;9.180;2023-04-03T16:24:05;20.10;31.40
423;DHT22;198;48.752;9.180;2023-04-03T16:26:31;19.80;31.30
423;DHT22;198;48.752;9.180;2023-04-03T16:28:56;18.60;31.10
423;DHT22;198;48.752;9.180;2023-04-03T16:31:23;17.50;31.00
423;DHT22;198;48.752;9.180;2023-04-03T16:33:49;16.20;31.60
423;DHT22;198;48.752;9.180;2023-04-03T16:36:15;15.20;32.50
423;DHT22;198;48.752;9.180;2023-04-03T16:38:40;14.30;33.90
423;DHT22;198;48.752;9.180;2023-04-03T16:41:06;13.30;34.70
423;DHT22;198;48.752;9.180;2023-04-03T16:43:32;12.90;36.00
423;DHT22;198;48.752;9.180;2023-04-03T16:45:58;13.00;36.30
423;DHT22;198;48.752;9.180;2023-04-03T16:48:24;12.90;36.60
423;DHT22;198;48.752;9.180;2023-04-03T16:50:50;12.90;36.70
423;DHT22;198;48.752;9.180;2023-04-03T16:53:19;12.70;36.40
423;DHT22;198;48.752;9.180;2023-04-03T16:55:45;12.70;38.00
423;DHT22;198;48.752;9.180;2023-04-03T16:58:11;13.40;37.30
423;DHT22;198;48.752;9.180;2023-04-03T17:00:36;14.00;36.70
423;DHT22;198;48.752;9.180;2023-04-03T17:03:02;14.50;35.90
423;DHT22;198;48.752;9.180;2023-04-03T17:05:28;14.40;35.90
423;DHT22;198;48.752;9.180;2023-04-03T17:07:53;13.80;36.00
423;DHT22;198;48.752;9.180;2023-04-03T17:10:19;13.00;36.40
423;DHT22;198;48.752;9.180;2023-04-03T17:12:44;12.20;37.00
423;DHT22;198;48.752;9.180;2023-04-03T17:15:10;11.80;37.40
423;DHT22;198;48.752;9.180;2023-04-03T17:17:36;11.40;38.30
423;DHT22;198;48.752;9.180;2023-04-03T17:20:03;11.00;39.60
423;DHT22;198;48.752;9.180;2023-04-03T17:22:29;10.80;40.10
423;DHT22;198;48.752;9.180;2023-04-03T17:24:55;10.50;40.60
423;DHT22;198;48.752;9.180;2023-04-03T17:27:21;10.10;41.50
423;DHT22;198;48.752;9.180;2023-04-03T17:29:46;9.80;42.70
423;DHT22;198;48.752;9.180;2023-04-03T17:32:12;9.50;42.90
423;DHT22;198;48.752;9.180;2023-04-03T17:34:38;9.20;43.10
423;DHT22;198;48.752;9.180;2023-04-03T17:37:04;9.00;44.30
423;DHT22;198;48.752;9.180;2023-04-03T17:39:30;8.80;43.90
423;DHT22;198;48.752;9.180;2023-04-03T17:41:55;8.50;44.70
423;DHT22;198;48.752;9.180;2023-04-03T17:44:21;8.30;44.90
423;DHT22;198;48.752;9.180;2023-04-03T17:46:47;8.10;45.60
423;DHT22;198;48.752;9.180;2023-04-03T17:49:12;8.00;45.40
423;DHT22;198;48.752;9.180;2023-04-03T17:51:40;8.00;46.00
423;DHT22;198;48.752;9.180;2023-04-03T17:54:05;7.90;46.60
423;DHT22;198;48.752;9.180;2023-04-03T17:56:31;7.80;47.20
423;DHT22;198;48.752;9.180;2023-04-03T17:58:57;7.70;47.10
423;DHT22;198;48.752;9.180;2023-04-03T18:01:23;7.60;46.50
423;DHT22;198;48.752;9.180;2023-04-03T18:03:52;7.60;46.50
423;DHT22;198;48.752;9.180;2023-04-03T18:06:19;7.50;46.50
423;DHT22;198;48.752;9.180;2023-04-03T18:09:06;7.50;47.10
423;DHT22;198;48.752;9.180;2023-04-03T18:11:33;7.40;47.50
423;DHT22;198;48.752;9.180;2023-04-03T18:13:59;7.20;48.10
423;DHT22;198;48.752;9.180;2023-04-03T18:16:26;7.10;48.30